sensor_id;sensor_type;location;lat;lon;timestamp;pressure;altitude;pressure_sealevel;temperature;humidity
28626;BME280;18905;42.668;23.364;2023-01-29T00:01:24;95200.63;;;0.32;100.00
28626;BME280;18905;42.668;23.364;2023-01-29T00:03:50;95183.81;;;0.27;100.00
28626;BME280;18905;42.668;23.364;2023-01-29T00:06:16;95137.31;;;-0.07;100.00
28626;BME280;18905;42.668;23.364;2023-01-29T00:08:42;95205.56;;;2.57;100.00
28626;BME280;18905;42.668;23.364;2023-01-29T00:11:08;95201.88;;;5.79;100.00
28626;BME280;18905;42.668;23.364;2023-01-29T00:13:34;95238.69;;;7.31;100.00
28626;BME280;18905;42.668;23.364;2023-01-29T00:16:00;95183.94;;;4.12;100.00
28626;BME280;18905;42.668;23.364;2023-01-29T00:18:26;95222.63;;;2.41;100.00
28626;BME280;18905;42.668;23.364;2023-01-29T00:20:52;95224.50;;;2.60;100.00
28626;BME280;18905;42.668;23.364;2023-01-29T00:23:17;95200.31;;;1.85;100.00
28626;BME280;18905;42.668;23.364;2023-01-29T00:25:43;95225.00;;;1.66;100.00
28626;BME280;18905;42.668;23.364;2023-01-29T00:28:09;95194.84;;;1.04;100.00
28626;BME280;18905;42.668;23.364;2023-01-29T00:30:36;95219.09;;;1.12;100.00
28626;BME280;18905;42.668;23.364;2023-01-29T00:33:02;95216.53;;;0.59;100.00
28626;BME280;18905;42.668;23.364;2023-01-29T00:35:28;95232.19;;;0.56;100.00
28626;BME280;18905;42.668;23.364;2023-01-29T00:37:54;95227.13;;;0.28;100.00
28626;BME280;18905;42.668;23.364;2023-01-29T00:40:20;95229.03;;;0.59;100.00
28626;BME280;18905;42.668;23.364;2023-01-29T00:42:47;95230.09;;;0.58;100.00
28626;BME280;18905;42.668;23.364;2023-01-29T00:45:31;95208.72;;;0.74;100.00
28626;BME280;18905;42.668;23.364;2023-01-29T00:47:56;95172.81;;;0.13;100.00
28626;BME280;18905;42.668;23.364;2023-01-29T00:50:21;95216.06;;;0.36;100.00
28626;BME280;18905;42.668;23.364;2023-01-29T00:52:47;95176.97;;;0.04;100.00
28626;BME280;18905;42.668;23.364;2023-01-29T00:55:13;95210.69;;;0.57;100.00
28626;BME280;18905;42.668;23.364;2023-01-29T00:57:39;95224.97;;;0.24;100.00
28626;BME280;18905;42.668;23.364;2023-01-29T01:00:07;95198.06;;;0.16;100.00
28626;BME280;18905;42.668;23.364;2023-01-29T01:02:33;95204.97;;;-0.10;100.00
28626;BME280;18905;42.668;23.364;2023-01-29T01:05:17;95182.72;;;-0.04;100.00
28626;BME280;18905;42.668;23.364;2023-01-29T01:07:48;95206.19;;;0.04;100.00
28626;BME280;18905;42.668;23.364;2023-01-29T01:10:17;95230.28;;;0.24;100.00
28626;BME280;18905;42.668;23.364;2023-01-29T01:13:07;95182.38;;;-0.12;100.00
28626;BME280;18905;42.668;23.364;2023-01-29T01:15:37;95224.44;;;0.22;100.00
28626;BME280;18905;42.668;23.364;2023-01-29T01:18:03;95225.34;;;0.33;100.00
28626;BME280;18905;42.668;23.364;2023-01-29T01:20:31;95213.09;;;0.05;100.00
28626;BME280;18905;42.668;23.364;2023-01-29T01:22:57;95214.69;;;0.06;100.00
28626;BME280;18905;42.668;23.364;2023-01-29T01:25:24;95206.47;;;0.08;100.00
28626;BME280;18905;42.668;23.364;2023-01-29T01:27:56;95214.31;;;0.19;100.00
28626;BME280;18905;42.668;23.364;2023-01-29T01:30:23;95210.59;;;-0.28;100.00
28626;BME280;18905;42.668;23.364;2023-01-29T01:32:49;95213.84;;;0.01;100.00
28626;BME280;18905;42.668;23.364;2023-01-29T01:35:15;95206.56;;;0.18;100.00
28626;BME280;18905;42.668;23.364;2023-01-29T01:37:40;95198.56;;;0.13;100.00
28626;BME280;18905;42.668;23.364;2023-01-29T01:40:11;95219.59;;;-0.07;100.00
28626;BME280;18905;42.668;23.364;2023-01-29T01:42:42;95219.59;;;-0.07;100.00
28626;BME280;18905;42.668;23.364;2023-01-29T01:47:53;95192.78;;;-0.32;100.00
28626;BME280;18905;42.668;23.364;2023-01-29T01:50:22;95221.72;;;-0.09;100.00
28626;BME280;18905;42.668;23.364;2023-01-29T01:52:52;95227.94;;;-0.20;100.00
28626;BME280;18905;42.668;23.364;2023-01-29T01:55:22;95209.59;;;-0.22;100.00
28626;BME280;18905;42.668;23.364;2023-01-29T01:57:52;95223.84;;;-0.06;100.00
28626;BME280;18905;42.668;23.364;2023-01-29T02:00:20;95202.25;;;-0.15;100.00
28626;BME280;18905;42.668;23.364;2023-01-29T02:02:48;95236.94;;;-0.21;100.00
28626;BME280;18905;42.668;23.364;2023-01-29T02:05:33;95232.06;;;-0.08;100.00
28626;BME280;18905;42.668;23.364;2023-01-29T02:08:26;95248.03;;;-0.03;100.00
28626;BME280;18905;42.668;23.364;2023-01-29T02:11:12;95205.50;;;-0.08;100.00
28626;BME280;18905;42.668;23.364;2023-01-29T02:13:38;95234.56;;;0.04;100.00
28626;BME280;18905;42.668;23.364;2023-01-29T02:16:04;95232.78;;;0.09;100.00
28626;BME280;18905;42.668;23.364;2023-01-29T02:18:29;95179.44;;;-0.59;100.00
28626;BME280;18905;42.668;23.364;2023-01-29T02:26:39;95241.13;;;-0.04;100.00
28626;BME280;18905;42.668;23.364;2023-01-29T02:35:03;95229.59;;;-0.14;100.00
28626;BME280;18905;42.668;23.364;2023-01-29T02:41:03;95252.75;;;-0.10;100.00
28626;BME280;18905;42.668;23.364;2023-01-29T02:49:26;95262.88;;;-0.07;100.00
28626;BME280;18905;42.668;23.364;2023-01-29T02:54:44;95274.34;;;-0.23;100.00
28626;BME280;18905;42.668;23.364;2023-01-29T02:57:22;95258.41;;;-0.23;100.00
28626;BME280;18905;42.668;23.364;2023-01-29T03:00:14;95265.72;;;-0.13;100.00
28626;BME280;18905;42.668;23.364;2023-01-29T03:02:50;95271.22;;;-0.20;100.00
28626;BME280;18905;42.668;23.364;2023-01-29T03:05:24;95264.84;;;-0.19;100.00
28626;BME280;18905;42.668;23.364;2023-01-29T03:07:57;95250.81;;;-0.14;100.00
28626;BME280;18905;42.668;23.364;2023-01-29T03:10:38;95258.06;;;-0.31;100.00
28626;BME280;18905;42.668;23.364;2023-01-29T03:13:12;95235.13;;;-0.37;100.00
28626;BME280;18905;42.668;23.364;2023-01-29T03:15:45;95270.25;;;-0.09;100.00
28626;BME280;18905;42.668;23.364;2023-01-29T03:18:21;95264.41;;;-0.11;100.00
28626;BME280;18905;42.668;23.364;2023-01-29T03:20:56;95264.47;;;-0.06;100.00
28626;BME280;18905;42.668;23.364;2023-01-29T03:23:27;95266.06;;;-0.05;100.00
28626;BME280;18905;42.668;23.364;2023-01-29T03:26:17;95269.78;;;-0.06;100.00
28626;BME280;18905;42.668;23.364;2023-01-29T03:29:03;95274.22;;;0.10;100.00
28626;BME280;18905;42.668;23.364;2023-01-29T03:31:47;95278.78;;;0.15;100.00
28626;BME280;18905;42.668;23.364;2023-01-29T03:34:42;95276.03;;;0.05;100.00
28626;BME280;18905;42.668;23.364;2023-01-29T03:37:21;95269.66;;;0.06;100.00
28626;BME280;18905;42.668;23.364;2023-01-29T03:39:48;95252.69;;;-0.15;100.00
28626;BME280;18905;42.668;23.364;2023-01-29T03:42:27;95277.44;;;0.13;100.00
28626;BME280;18905;42.668;23.364;2023-01-29T03:48:00;95265.41;;;0.05;100.00
28626;BME280;18905;42.668;23.364;2023-01-29T04:01:10;95269.75;;;0.16;100.00
28626;BME280;18905;42.668;23.364;2023-01-29T04:03:44;95272.75;;;-0.02;100.00
28626;BME280;18905;42.668;23.364;2023-01-29T04:06:18;95277.31;;;0.03;100.00
28626;BME280;18905;42.668;23.364;2023-01-29T04:09:30;95272.06;;;0.08;100.00
28626;BME280;18905;42.668;23.364;2023-01-29T04:12:03;95258.53;;;-0.13;100.00
28626;BME280;18905;42.668;23.364;2023-01-29T04:14:31;95260.47;;;-0.08;100.00
28626;BME280;18905;42.668;23.364;2023-01-29T04:16:59;95280.94;;;-0.25;100.00
28626;BME280;18905;42.668;23.364;2023-01-29T04:19:27;95279.50;;;0.10;100.00
28626;BME280;18905;42.668;23.364;2023-01-29T04:22:01;95283.34;;;-0.24;100.00
28626;BME280;18905;42.668;23.364;2023-01-29T04:24:28;95279.28;;;-0.10;100.00
28626;BME280;18905;42.668;23.364;2023-01-29T04:27:10;95287.38;;;-0.21;100.00
28626;BME280;18905;42.668;23.364;2023-01-29T04:34:58;95278.03;;;-0.02;100.00
28626;BME280;18905;42.668;23.364;2023-01-29T04:37:46;95290.56;;;-0.19;100.00
28626;BME280;18905;42.668;23.364;2023-01-29T04:40:30;95270.09;;;-0.24;100.00
28626;BME280;18905;42.668;23.364;2023-01-29T04:43:12;95273.22;;;-0.05;100.00
28626;BME280;18905;42.668;23.364;2023-01-29T04:54:13;95288.72;;;-0.40;100.00
28626;BME280;18905;42.668;23.364;2023-01-29T04:56:50;95272.25;;;-0.21;100.00
28626;BME280;18905;42.668;23.364;2023-01-29T04:59:32;95285.94;;;-0.29;100.00
28626;BME280;18905;42.668;23.364;2023-01-29T05:02:00;95290.75;;;-0.26;100.00
28626;BME280;18905;42.668;23.364;2023-01-29T05:04:30;95263.97;;;-0.24;100.00
28626;BME280;18905;42.668;23.364;2023-01-29T05:07:02;95285.72;;;-0.06;100.00
28626;BME280;18905;42.668;23.364;2023-01-29T05:09:29;95297.50;;;-0.18;100.00
28626;BME280;18905;42.668;23.364;2023-01-29T05:11:56;95281.28;;;-0.38;100.00
28626;BME280;18905;42.668;23.364;2023-01-29T05:14:22;95301.50;;;-0.16;100.00
28626;BME280;18905;42.668;23.364;2023-01-29T05:16:51;95303.28;;;-0.21;100.00
28626;BME280;18905;42.668;23.364;2023-01-29T05:19:17;95278.72;;;-0.33;100.00
28626;BME280;18905;42.668;23.364;2023-01-29T05:21:48;95270.38;;;-0.42;100.00
28626;BME280;18905;42.668;23.364;2023-01-29T05:24:18;95303.47;;;-0.28;100.00
28626;BME280;18905;42.668;23.364;2023-01-29T05:26:46;95282.66;;;-0.36;100.00
28626;BME280;18905;42.668;23.364;2023-01-29T05:29:30;95306.00;;;-0.16;100.00
28626;BME280;18905;42.668;23.364;2023-01-29T05:31:56;95309.47;;;0.06;100.00
28626;BME280;18905;42.668;23.364;2023-01-29T05:34:22;95304.75;;;-0.30;100.00
28626;BME280;18905;42.668;23.364;2023-01-29T05:36:48;95321.63;;;-0.20;100.00
28626;BME280;18905;42.668;23.364;2023-01-29T05:39:13;95294.72;;;-0.07;100.00
28626;BME280;18905;42.668;23.364;2023-01-29T05:41:38;95253.63;;;-0.64;100.00
28626;BME280;18905;42.668;23.364;2023-01-29T05:44:04;95313.31;;;-0.23;100.00
28626;BME280;18905;42.668;23.364;2023-01-29T05:46:30;95309.47;;;-0.16;100.00
28626;BME280;18905;42.668;23.364;2023-01-29T05:48:55;95321.81;;;-0.05;100.00
28626;BME280;18905;42.668;23.364;2023-01-29T05:51:21;95322.28;;;-0.08;100.00
28626;BME280;18905;42.668;23.364;2023-01-29T05:53:46;95303.47;;;-0.28;100.00
28626;BME280;18905;42.668;23.364;2023-01-29T05:56:11;95326.69;;;-0.35;100.00
28626;BME280;18905;42.668;23.364;2023-01-29T05:58:37;95295.19;;;-0.53;100.00
28626;BME280;18905;42.668;23.364;2023-01-29T06:03:34;95334.19;;;-0.32;100.00
28626;BME280;18905;42.668;23.364;2023-01-29T06:06:00;95322.66;;;-0.59;100.00
28626;BME280;18905;42.668;23.364;2023-01-29T06:08:26;95334.31;;;-0.60;100.00
28626;BME280;18905;42.668;23.364;2023-01-29T06:10:51;95299.88;;;-0.38;100.00
28626;BME280;18905;42.668;23.364;2023-01-29T06:13:17;95309.53;;;-0.49;100.00
28626;BME280;18905;42.668;23.364;2023-01-29T06:15:42;95288.75;;;-0.57;100.00
28626;BME280;18905;42.668;23.364;2023-01-29T06:18:07;95325.09;;;0.03;100.00
28626;BME280;18905;42.668;23.364;2023-01-29T06:20:33;95350.38;;;-0.12;100.00
28626;BME280;18905;42.668;23.364;2023-01-29T06:22:58;95345.28;;;-0.18;100.00
28626;BME280;18905;42.668;23.364;2023-01-29T06:25:24;95362.00;;;-0.34;100.00
28626;BME280;18905;42.668;23.364;2023-01-29T06:27:50;95333.97;;;-0.47;100.00
28626;BME280;18905;42.668;23.364;2023-01-29T06:30:15;95371.31;;;0.06;100.00
28626;BME280;18905;42.668;23.364;2023-01-29T06:32:41;95365.00;;;0.08;100.00
28626;BME280;18905;42.668;23.364;2023-01-29T06:35:07;95367.59;;;0.03;100.00
28626;BME280;18905;42.668;23.364;2023-01-29T06:37:34;95334.09;;;0.01;100.00
28626;BME280;18905;42.668;23.364;2023-01-29T06:39:59;95375.31;;;0.26;100.00
28626;BME280;18905;42.668;23.364;2023-01-29T06:42:25;95374.63;;;0.13;100.00
28626;BME280;18905;42.668;23.364;2023-01-29T06:44:53;95331.06;;;-0.07;100.00
28626;BME280;18905;42.668;23.364;2023-01-29T06:47:19;95390.97;;;0.05;100.00
28626;BME280;18905;42.668;23.364;2023-01-29T06:49:44;95344.81;;;-0.32;100.00
28626;BME280;18905;42.668;23.364;2023-01-29T06:52:10;95365.47;;;0.04;100.00
28626;BME280;18905;42.668;23.364;2023-01-29T06:54:35;95378.34;;;0.34;100.00
28626;BME280;18905;42.668;23.364;2023-01-29T06:57:00;95390.84;;;0.38;100.00
28626;BME280;18905;42.668;23.364;2023-01-29T06:59:26;95386.47;;;0.28;100.00
28626;BME280;18905;42.668;23.364;2023-01-29T07:01:51;95396.38;;;0.54;100.00
28626;BME280;18905;42.668;23.364;2023-01-29T07:04:16;95392.19;;;0.58;100.00
28626;BME280;18905;42.668;23.364;2023-01-29T07:06:42;95392.31;;;0.46;100.00
28626;BME280;18905;42.668;23.364;2023-01-29T07:09:10;95404.53;;;0.47;100.00
28626;BME280;18905;42.668;23.364;2023-01-29T07:11:36;95405.31;;;0.47;100.00
28626;BME280;18905;42.668;23.364;2023-01-29T07:14:02;95397.91;;;0.50;100.00
28626;BME280;18905;42.668;23.364;2023-01-29T07:16:28;95406.44;;;0.52;100.00
28626;BME280;18905;42.668;23.364;2023-01-29T07:18:53;95384.53;;;0.40;100.00
28626;BME280;18905;42.668;23.364;2023-01-29T07:21:19;95373.63;;;0.19;100.00
28626;BME280;18905;42.668;23.364;2023-01-29T07:23:44;95381.88;;;0.01;100.00
28626;BME280;18905;42.668;23.364;2023-01-29T07:26:10;95414.03;;;0.22;100.00
28626;BME280;18905;42.668;23.364;2023-01-29T07:28:37;95382.16;;;0.00;100.00
28626;BME280;18905;42.668;23.364;2023-01-29T07:31:03;95406.72;;;0.12;100.00
28626;BME280;18905;42.668;23.364;2023-01-29T07:33:29;95389.44;;;0.31;100.00
28626;BME280;18905;42.668;23.364;2023-01-29T07:35:55;95415.88;;;0.43;100.00
28626;BME280;18905;42.668;23.364;2023-01-29T07:38:20;95391.94;;;-0.01;100.00
28626;BME280;18905;42.668;23.364;2023-01-29T07:40:46;95375.09;;;0.10;100.00
28626;BME280;18905;42.668;23.364;2023-01-29T07:43:12;95419.41;;;0.48;100.00
28626;BME280;18905;42.668;23.364;2023-01-29T07:45:38;95395.81;;;0.52;100.00
28626;BME280;18905;42.668;23.364;2023-01-29T07:48:05;95426.72;;;0.58;100.00
28626;BME280;18905;42.668;23.364;2023-01-29T07:50:33;95392.34;;;0.29;100.00
28626;BME280;18905;42.668;23.364;2023-01-29T07:52:58;95429.41;;;0.41;100.00
28626;BME280;18905;42.668;23.364;2023-01-29T07:55:24;95412.88;;;0.34;100.00
28626;BME280;18905;42.668;23.364;2023-01-29T07:58:00;95435.94;;;0.33;100.00
28626;BME280;18905;42.668;23.364;2023-01-29T08:00:26;95432.19;;;0.29;100.00
28626;BME280;18905;42.668;23.364;2023-01-29T08:02:52;95430.91;;;0.32;100.00
28626;BME280;18905;42.668;23.364;2023-01-29T08:05:18;95422.81;;;0.44;100.00
28626;BME280;18905;42.668;23.364;2023-01-29T08:07:44;95408.16;;;0.19;100.00
28626;BME280;18905;42.668;23.364;2023-01-29T08:10:10;95415.31;;;0.19;100.00
28626;BME280;18905;42.668;23.364;2023-01-29T08:12:35;95447.75;;;0.43;100.00
28626;BME280;18905;42.668;23.364;2023-01-29T08:15:01;95437.66;;;0.40;100.00
28626;BME280;18905;42.668;23.364;2023-01-29T08:17:26;95434.53;;;0.47;100.00
28626;BME280;18905;42.668;23.364;2023-01-29T08:19:52;95452.75;;;2.25;100.00
28626;BME280;18905;42.668;23.364;2023-01-29T08:22:17;95451.13;;;3.37;100.00
28626;BME280;18905;42.668;23.364;2023-01-29T08:24:43;95411.69;;;1.79;100.00
28626;BME280;18905;42.668;23.364;2023-01-29T08:27:08;95439.69;;;2.75;100.00
28626;BME280;18905;42.668;23.364;2023-01-29T08:29:34;95434.47;;;3.00;100.00
28626;BME280;18905;42.668;23.364;2023-01-29T08:31:59;95452.13;;;2.54;100.00
28626;BME280;18905;42.668;23.364;2023-01-29T08:34:25;95442.06;;;2.20;100.00
28626;BME280;18905;42.668;23.364;2023-01-29T08:36:51;95409.78;;;2.63;100.00
28626;BME280;18905;42.668;23.364;2023-01-29T08:39:17;95412.41;;;2.06;100.00
28626;BME280;18905;42.668;23.364;2023-01-29T08:41:43;95416.41;;;2.55;100.00
28626;BME280;18905;42.668;23.364;2023-01-29T08:44:08;95446.91;;;2.28;100.00
28626;BME280;18905;42.668;23.364;2023-01-29T08:46:33;95434.72;;;2.00;100.00
28626;BME280;18905;42.668;23.364;2023-01-29T08:48:59;95456.53;;;1.61;100.00
28626;BME280;18905;42.668;23.364;2023-01-29T08:51:24;95413.06;;;0.97;100.00
28626;BME280;18905;42.668;23.364;2023-01-29T08:53:50;95468.09;;;1.45;100.00
28626;BME280;18905;42.668;23.364;2023-01-29T08:56:16;95462.44;;;1.41;100.00
28626;BME280;18905;42.668;23.364;2023-01-29T08:58:41;95462.50;;;1.20;100.00
28626;BME280;18905;42.668;23.364;2023-01-29T09:01:09;95479.72;;;1.39;100.00
28626;BME280;18905;42.668;23.364;2023-01-29T09:03:35;95467.22;;;1.13;100.00
28626;BME280;18905;42.668;23.364;2023-01-29T09:06:01;95462.44;;;1.15;100.00
28626;BME280;18905;42.668;23.364;2023-01-29T09:08:26;95449.97;;;0.94;100.00
28626;BME280;18905;42.668;23.364;2023-01-29T09:10:52;95479.88;;;0.79;100.00
28626;BME280;18905;42.668;23.364;2023-01-29T09:13:17;95479.56;;;0.76;100.00
28626;BME280;18905;42.668;23.364;2023-01-29T09:15:43;95461.81;;;0.81;100.00
28626;BME280;18905;42.668;23.364;2023-01-29T09:18:08;95438.75;;;0.87;100.00
28626;BME280;18905;42.668;23.364;2023-01-29T09:20:33;95432.94;;;0.90;100.00
28626;BME280;18905;42.668;23.364;2023-01-29T09:23:08;95473.63;;;1.17;100.00
28626;BME280;18905;42.668;23.364;2023-01-29T09:25:34;95472.97;;;1.05;100.00
28626;BME280;18905;42.668;23.364;2023-01-29T09:28:00;95469.50;;;1.04;100.00
28626;BME280;18905;42.668;23.364;2023-01-29T09:30:26;95471.38;;;1.04;100.00
28626;BME280;18905;42.668;23.364;2023-01-29T09:32:51;95469.69;;;1.19;100.00
28626;BME280;18905;42.668;23.364;2023-01-29T09:35:16;95471.16;;;1.32;100.00
28626;BME280;18905;42.668;23.364;2023-01-29T09:37:42;95461.91;;;1.13;100.00
28626;BME280;18905;42.668;23.364;2023-01-29T09:43:00;95446.53;;;1.20;100.00
28626;BME280;18905;42.668;23.364;2023-01-29T09:45:27;95416.56;;;1.03;100.00
28626;BME280;18905;42.668;23.364;2023-01-29T09:48:03;95444.13;;;1.18;100.00
28626;BME280;18905;42.668;23.364;2023-01-29T09:50:39;95439.34;;;0.94;100.00
28626;BME280;18905;42.668;23.364;2023-01-29T09:53:20;95451.88;;;1.20;100.00
28626;BME280;18905;42.668;23.364;2023-01-29T09:55:57;95412.13;;;0.82;100.00
28626;BME280;18905;42.668;23.364;2023-01-29T09:58:33;95456.09;;;0.94;100.00
28626;BME280;18905;42.668;23.364;2023-01-29T10:17:35;95445.00;;;1.24;100.00
28626;BME280;18905;42.668;23.364;2023-01-29T10:20:27;95439.13;;;0.74;100.00
28626;BME280;18905;42.668;23.364;2023-01-29T10:23:58;95434.44;;;0.81;100.00
28626;BME280;18905;42.668;23.364;2023-01-29T10:25:55;95422.78;;;0.87;100.00
28626;BME280;18905;42.668;23.364;2023-01-29T10:28:38;95429.94;;;1.08;100.00
28626;BME280;18905;42.668;23.364;2023-01-29T10:31:31;95430.97;;;0.80;100.00
28626;BME280;18905;42.668;23.364;2023-01-29T10:36:44;95409.16;;;1.05;100.00
28626;BME280;18905;42.668;23.364;2023-01-29T10:39:20;95421.72;;;1.36;100.00
28626;BME280;18905;42.668;23.364;2023-01-29T11:00:38;95398.22;;;1.28;100.00
28626;BME280;18905;42.668;23.364;2023-01-29T11:03:24;95395.72;;;1.16;100.00
28626;BME280;18905;42.668;23.364;2023-01-29T11:08:23;95401.94;;;1.00;100.00
28626;BME280;18905;42.668;23.364;2023-01-29T11:11:12;95397.59;;;1.21;100.00
28626;BME280;18905;42.668;23.364;2023-01-29T11:13:54;95393.56;;;0.87;100.00
28626;BME280;18905;42.668;23.364;2023-01-29T11:16:22;95408.03;;;1.27;100.00
28626;BME280;18905;42.668;23.364;2023-01-29T11:21:21;95401.13;;;1.26;100.00
28626;BME280;18905;42.668;23.364;2023-01-29T11:23:47;95394.59;;;1.12;100.00
28626;BME280;18905;42.668;23.364;2023-01-29T11:26:17;95398.56;;;1.36;100.00
28626;BME280;18905;42.668;23.364;2023-01-29T11:28:47;95389.91;;;1.51;100.00
28626;BME280;18905;42.668;23.364;2023-01-29T11:31:34;95378.25;;;1.93;100.00
28626;BME280;18905;42.668;23.364;2023-01-29T11:34:11;95377.56;;;1.71;100.00
28626;BME280;18905;42.668;23.364;2023-01-29T11:36:37;95384.25;;;1.79;100.00
28626;BME280;18905;42.668;23.364;2023-01-29T11:39:14;95376.38;;;1.57;100.00
28626;BME280;18905;42.668;23.364;2023-01-29T11:44:41;95365.38;;;1.49;100.00
28626;BME280;18905;42.668;23.364;2023-01-29T11:49:36;95353.28;;;1.63;100.00
28626;BME280;18905;42.668;23.364;2023-01-29T11:52:04;95361.00;;;1.64;100.00
28626;BME280;18905;42.668;23.364;2023-01-29T11:54:37;95357.34;;;1.75;100.00
28626;BME280;18905;42.668;23.364;2023-01-29T11:57:04;95340.03;;;1.36;100.00
28626;BME280;18905;42.668;23.364;2023-01-29T12:02:43;95361.66;;;1.81;100.00
28626;BME280;18905;42.668;23.364;2023-01-29T12:05:18;95359.19;;;1.75;100.00
28626;BME280;18905;42.668;23.364;2023-01-29T12:07:46;95350.81;;;1.51;100.00
28626;BME280;18905;42.668;23.364;2023-01-29T12:10:35;95361.16;;;1.84;100.00
28626;BME280;18905;42.668;23.364;2023-01-29T12:15:45;95345.63;;;1.76;100.00
28626;BME280;18905;42.668;23.364;2023-01-29T12:21:01;95347.22;;;1.72;100.00
28626;BME280;18905;42.668;23.364;2023-01-29T12:26:32;95355.06;;;1.94;100.00
28626;BME280;18905;42.668;23.364;2023-01-29T12:29:44;95355.31;;;1.51;100.00
28626;BME280;18905;42.668;23.364;2023-01-29T12:32:28;95356.78;;;1.73;100.00
28626;BME280;18905;42.668;23.364;2023-01-29T12:35:03;95352.75;;;1.66;100.00
28626;BME280;18905;42.668;23.364;2023-01-29T12:37:43;95358.16;;;1.39;100.00
28626;BME280;18905;42.668;23.364;2023-01-29T12:40:15;95322.25;;;1.42;100.00
28626;BME280;18905;42.668;23.364;2023-01-29T12:42:45;95356.13;;;1.93;100.00
28626;BME280;18905;42.668;23.364;2023-01-29T12:45:17;95360.56;;;2.24;100.00
28626;BME280;18905;42.668;23.364;2023-01-29T12:47:47;95332.50;;;1.60;100.00
28626;BME280;18905;42.668;23.364;2023-01-29T12:50:27;95349.59;;;1.69;100.00
28626;BME280;18905;42.668;23.364;2023-01-29T12:55:38;95335.25;;;1.38;100.00
28626;BME280;18905;42.668;23.364;2023-01-29T12:58:20;95356.94;;;1.57;100.00
28626;BME280;18905;42.668;23.364;2023-01-29T13:00:49;95359.00;;;1.45;100.00
28626;BME280;18905;42.668;23.364;2023-01-29T13:03:21;95354.31;;;1.62;100.00
28626;BME280;18905;42.668;23.364;2023-01-29T13:06:38;95350.97;;;1.76;100.00
28626;BME280;18905;42.668;23.364;2023-01-29T13:09:11;95321.50;;;1.15;100.00
28626;BME280;18905;42.668;23.364;2023-01-29T13:14:26;95336.44;;;1.52;100.00
28626;BME280;18905;42.668;23.364;2023-01-29T13:17:09;95341.34;;;1.70;100.00
28626;BME280;18905;42.668;23.364;2023-01-29T13:19:41;95339.00;;;1.79;100.00
28626;BME280;18905;42.668;23.364;2023-01-29T13:22:23;95325.56;;;1.59;100.00
28626;BME280;18905;42.668;23.364;2023-01-29T13:24:49;95334.59;;;1.58;100.00
28626;BME280;18905;42.668;23.364;2023-01-29T13:27:24;95342.84;;;1.25;100.00
28626;BME280;18905;42.668;23.364;2023-01-29T13:29:50;95350.50;;;1.48;100.00
28626;BME280;18905;42.668;23.364;2023-01-29T13:32:35;95332.09;;;1.10;100.00
28626;BME280;18905;42.668;23.364;2023-01-29T13:35:11;95360.78;;;1.34;100.00
28626;BME280;18905;42.668;23.364;2023-01-29T13:37:45;95363.03;;;1.52;100.00
28626;BME280;18905;42.668;23.364;2023-01-29T13:40:22;95354.59;;;1.29;100.00
28626;BME280;18905;42.668;23.364;2023-01-29T13:42:49;95367.22;;;1.43;100.00
28626;BME280;18905;42.668;23.364;2023-01-29T13:45:41;95370.31;;;1.67;100.00
28626;BME280;18905;42.668;23.364;2023-01-29T13:48:31;95339.09;;;1.21;100.00
28626;BME280;18905;42.668;23.364;2023-01-29T13:51:00;95368.34;;;1.21;100.00
28626;BME280;18905;42.668;23.364;2023-01-29T13:53:31;95367.19;;;1.38;100.00
28626;BME280;18905;42.668;23.364;2023-01-29T13:58:58;95379.84;;;1.26;100.00
28626;BME280;18905;42.668;23.364;2023-01-29T14:04:27;95386.75;;;1.54;100.00
28626;BME280;18905;42.668;23.364;2023-01-29T14:06:59;95378.41;;;1.45;100.00
28626;BME280;18905;42.668;23.364;2023-01-29T14:14:58;95386.53;;;2.02;100.00
28626;BME280;18905;42.668;23.364;2023-01-29T14:17:25;95397.66;;;1.94;100.00
28626;BME280;18905;42.668;23.364;2023-01-29T14:20:00;95383.38;;;1.32;100.00
28626;BME280;18905;42.668;23.364;2023-01-29T14:22:28;95382.78;;;1.56;100.00
28626;BME280;18905;42.668;23.364;2023-01-29T14:24:57;95400.09;;;2.00;100.00
28626;BME280;18905;42.668;23.364;2023-01-29T14:27:24;95393.59;;;1.18;100.00
28626;BME280;18905;42.668;23.364;2023-01-29T14:29:50;95397.72;;;1.31;100.00
28626;BME280;18905;42.668;23.364;2023-01-29T14:32:23;95406.19;;;1.28;100.00
28626;BME280;18905;42.668;23.364;2023-01-29T14:35:02;95405.38;;;1.27;100.00
28626;BME280;18905;42.668;23.364;2023-01-29T14:37:34;95388.31;;;1.50;100.00
28626;BME280;18905;42.668;23.364;2023-01-29T14:53:22;95412.97;;;1.14;100.00
28626;BME280;18905;42.668;23.364;2023-01-29T14:58:41;95415.63;;;1.14;100.00
28626;BME280;18905;42.668;23.364;2023-01-29T15:01:35;95419.91;;;0.88;100.00
28626;BME280;18905;42.668;23.364;2023-01-29T15:04:04;95409.53;;;0.65;100.00
28626;BME280;18905;42.668;23.364;2023-01-29T15:09:20;95414.34;;;0.90;100.00
28626;BME280;18905;42.668;23.364;2023-01-29T15:12:19;95417.59;;;1.86;100.00
28626;BME280;18905;42.668;23.364;2023-01-29T15:15:01;95410.19;;;0.99;100.00
28626;BME280;18905;42.668;23.364;2023-01-29T15:17:58;95414.44;;;1.00;100.00
28626;BME280;18905;42.668;23.364;2023-01-29T15:22:56;95422.13;;;0.96;100.00
28626;BME280;18905;42.668;23.364;2023-01-29T15:25:21;95407.81;;;1.02;100.00
28626;BME280;18905;42.668;23.364;2023-01-29T15:27:48;95408.25;;;0.94;100.00
28626;BME280;18905;42.668;23.364;2023-01-29T15:30:21;95430.28;;;0.68;100.00
28626;BME280;18905;42.668;23.364;2023-01-29T15:32:47;95401.56;;;0.44;100.00
28626;BME280;18905;42.668;23.364;2023-01-29T15:35:29;95406.66;;;0.50;100.00
28626;BME280;18905;42.668;23.364;2023-01-29T15:38:04;95397.53;;;0.41;100.00
28626;BME280;18905;42.668;23.364;2023-01-29T15:40:30;95427.16;;;0.50;100.00
28626;BME280;18905;42.668;23.364;2023-01-29T15:42:56;95425.28;;;0.72;100.00
28626;BME280;18905;42.668;23.364;2023-01-29T15:47:53;95426.69;;;0.79;100.00